createdAt,value
2016-12-16T19:22:54.747Z,1012
2016-12-16T19:23:15.311Z,1012.1
2016-12-16T19:23:35.840Z,1012.1
2016-12-16T19:23:56.382Z,1012
2016-12-16T19:24:16.927Z,1012.1
2016-12-16T19:24:37.472Z,1012.1
2016-12-16T19:24:58.155Z,1012.1
2016-12-16T19:25:18.779Z,1012
2016-12-16T19:25:39.318Z,1012.1
2016-12-16T19:25:59.851Z,1012.1
2016-12-16T19:26:20.383Z,1012.1
2016-12-16T19:26:40.919Z,1012.1
2016-12-16T19:27:01.483Z,1012.1
2016-12-16T19:27:22.020Z,1012.1
2016-12-16T19:27:42.589Z,1012.1
2016-12-16T19:28:03.122Z,1012.1
2016-12-16T19:28:23.706Z,1012.1
2016-12-16T19:28:44.470Z,1012.1
2016-12-16T19:29:05.045Z,1012.1
2016-12-16T19:29:25.962Z,1012.1
2016-12-16T19:29:46.657Z,1012.1
2016-12-16T19:30:07.209Z,1012.1
2016-12-16T19:30:27.760Z,1012.1
2016-12-16T19:30:48.314Z,1012.1
2016-12-16T19:31:08.876Z,1012.1
2016-12-16T19:31:29.408Z,1012.1
2016-12-16T19:31:49.950Z,1012.1
2016-12-16T19:32:10.487Z,1012.1
2016-12-16T19:32:31.027Z,1012.1
2016-12-16T19:32:51.631Z,1012.1
2016-12-16T19:33:12.185Z,1012.1
2016-12-16T19:33:32.932Z,1012.2
2016-12-16T19:33:53.871Z,1012.1
2016-12-16T19:34:14.416Z,1012.1
2016-12-16T19:34:34.965Z,1012.2
2016-12-16T19:34:55.491Z,1012.2
2016-12-16T19:35:16.059Z,1012.1
2016-12-16T19:35:36.605Z,1012.2
2016-12-16T19:35:58.530Z,1012.2
2016-12-16T19:36:20.167Z,1012.2
2016-12-16T19:36:40.700Z,1012.2
2016-12-16T19:37:01.262Z,1012.2
2016-12-16T19:37:22.189Z,1012.2
2016-12-16T19:37:43.045Z,1012.2
2016-12-16T19:38:03.579Z,1012.2
2016-12-16T19:38:24.133Z,1012.1
2016-12-16T19:38:44.664Z,1012.2
2016-12-16T19:39:05.202Z,1012.2
2016-12-16T19:39:25.887Z,1012.2
2016-12-16T19:39:46.776Z,1012.1
2016-12-16T19:40:07.342Z,1012.1
2016-12-16T19:40:27.864Z,1012.1
2016-12-16T19:40:48.428Z,1012.2
2016-12-16T19:41:09.110Z,1012.1
2016-12-16T19:41:29.690Z,1012.1
2016-12-16T19:41:50.217Z,1012.1
2016-12-16T19:42:10.780Z,1012.1
2016-12-16T19:42:31.439Z,1012.1
2016-12-16T19:42:51.993Z,1012.1
2016-12-16T19:43:12.759Z,1012.2
2016-12-16T19:43:33.410Z,1012.1
2016-12-16T19:43:53.938Z,1012.2
2016-12-16T19:44:14.643Z,1012.1
2016-12-16T19:44:35.326Z,1012.1
2016-12-16T19:44:55.985Z,1012.1
2016-12-16T19:45:16.639Z,1012.1
2016-12-16T19:45:37.173Z,1012.1
2016-12-16T19:45:57.704Z,1012.1
2016-12-16T19:46:18.268Z,1012.1
2016-12-16T19:46:38.805Z,1012.1
2016-12-16T19:46:59.335Z,1012.1
2016-12-16T19:47:19.873Z,1012.1
2016-12-16T19:47:40.765Z,1012.1
2016-12-16T19:48:01.308Z,1012.1
2016-12-16T19:48:21.858Z,1012.1
2016-12-16T19:48:42.393Z,1012.1
2016-12-16T19:49:02.929Z,1012
2016-12-16T19:49:23.639Z,1012.1
2016-12-16T19:49:44.171Z,1012.1
2016-12-16T19:50:04.723Z,1012.1
2016-12-16T19:50:25.259Z,1012
2016-12-16T19:50:45.805Z,1012
2016-12-16T19:51:06.544Z,1012
2016-12-16T19:51:27.873Z,1012
2016-12-16T19:51:48.481Z,1012.1
2016-12-16T19:52:09.072Z,1012
2016-12-16T19:52:29.961Z,1012.1
2016-12-16T19:52:50.749Z,1012.1
2016-12-16T19:53:11.289Z,1012
2016-12-16T19:53:31.844Z,1012
2016-12-16T19:53:52.412Z,1012
2016-12-16T19:54:12.952Z,1012
2016-12-16T19:54:33.507Z,1012
2016-12-16T19:54:54.032Z,1012.1
2016-12-16T19:55:14.578Z,1012.1
2016-12-16T19:55:35.270Z,1012.1
2016-12-16T19:55:56.895Z,1012.1
2016-12-16T19:56:17.552Z,1012.1
2016-12-16T19:56:38.083Z,1012
2016-12-16T19:56:58.747Z,1012
2016-12-16T19:57:19.353Z,1012.1
2016-12-16T19:57:39.884Z,1012.1
2016-12-16T19:58:00.428Z,1012.1
2016-12-16T19:58:20.959Z,1012.1
2016-12-16T19:58:41.499Z,1012
2016-12-16T19:59:02.036Z,1012
2016-12-16T19:59:22.584Z,1012
2016-12-16T19:59:43.130Z,1012.1
2016-12-16T20:00:03.660Z,1012
2016-12-16T20:00:24.191Z,1012.1
2016-12-16T20:00:44.780Z,1012.1
2016-12-16T20:01:05.336Z,1012.1
2016-12-16T20:01:25.886Z,1012
2016-12-16T20:01:46.417Z,1012.1
2016-12-16T20:02:07.103Z,1012
2016-12-16T20:02:27.655Z,1012
2016-12-16T20:05:06.244Z,1012
2016-12-16T20:05:26.924Z,1012
2016-12-16T20:05:47.546Z,1012
2016-12-16T20:06:08.172Z,1012
2016-12-16T20:06:28.763Z,1012.1
2016-12-16T20:06:49.367Z,1012.1
2016-12-16T20:07:09.977Z,1012
2016-12-16T20:07:30.607Z,1012.1
2016-12-16T20:07:51.178Z,1012
2016-12-16T20:08:11.761Z,1012
2016-12-16T20:08:32.378Z,1012.1
2016-12-16T20:08:52.921Z,1012
2016-12-16T20:09:13.586Z,1012.1
2016-12-16T20:09:34.271Z,1012
2016-12-16T20:09:54.813Z,1012.1
2016-12-16T20:10:15.394Z,1012
2016-12-16T20:10:35.995Z,1012
2016-12-16T20:10:56.554Z,1012
2016-12-16T20:11:17.100Z,1012
2016-12-16T20:11:37.681Z,1012.1
2016-12-16T20:11:58.238Z,1012.1
2016-12-16T20:12:18.823Z,1012
2016-12-16T20:12:39.375Z,1012
2016-12-16T20:12:59.932Z,1012
2016-12-16T20:13:20.630Z,1012
2016-12-16T20:13:41.198Z,1012
2016-12-16T20:14:01.821Z,1012
2016-12-16T20:14:22.416Z,1012
2016-12-16T20:14:42.958Z,1012
2016-12-16T20:15:03.640Z,1012
2016-12-16T20:15:24.212Z,1012
2016-12-16T20:15:44.960Z,1012
2016-12-16T20:16:05.607Z,1012
2016-12-16T20:16:26.205Z,1012
2016-12-16T20:16:46.811Z,1012
2016-12-16T20:17:07.360Z,1012
2016-12-16T20:17:27.960Z,1012
2016-12-16T20:17:48.611Z,1012
2016-12-16T20:18:09.334Z,1012
2016-12-16T20:18:30.138Z,1012
2016-12-16T20:18:50.801Z,1012
2016-12-16T20:19:11.357Z,1012
2016-12-16T20:19:31.940Z,1012
2016-12-16T20:19:52.606Z,1012
2016-12-16T20:20:13.302Z,1012
2016-12-16T20:20:33.964Z,1012
2016-12-16T20:20:54.824Z,1011.9
2016-12-16T20:21:15.486Z,1012
2016-12-16T20:21:36.090Z,1012
2016-12-16T20:21:56.716Z,1012
2016-12-16T20:22:17.317Z,1012
2016-12-16T20:22:37.934Z,1012
2016-12-16T20:22:58.576Z,1012
2016-12-16T20:23:19.153Z,1012
2016-12-16T20:23:39.778Z,1012
2016-12-16T20:24:00.430Z,1012
2016-12-16T20:24:21.066Z,1012
2016-12-16T20:24:41.657Z,1012
2016-12-16T20:25:02.232Z,1012
2016-12-16T20:25:22.881Z,1012
2016-12-16T20:25:43.478Z,1012
2016-12-16T20:26:04.277Z,1012
2016-12-16T20:26:24.973Z,1012
2016-12-16T20:26:45.597Z,1012
2016-12-16T20:27:06.253Z,1012
2016-12-16T20:27:26.875Z,1012
2016-12-16T20:27:47.599Z,1012
2016-12-16T20:28:08.439Z,1012
2016-12-16T20:28:29.239Z,1012
2016-12-16T20:28:51.067Z,1012
2016-12-16T20:29:12.029Z,1012
2016-12-16T20:29:32.659Z,1012
2016-12-16T20:29:53.836Z,1012
2016-12-16T20:30:14.401Z,1012
2016-12-16T20:30:35.004Z,1012
2016-12-16T20:30:55.708Z,1012
2016-12-16T20:31:16.356Z,1012
2016-12-16T20:31:37.126Z,1012
2016-12-16T20:31:57.896Z,1012
2016-12-16T20:32:18.551Z,1012
2016-12-16T20:32:39.245Z,1012
2016-12-16T20:32:59.988Z,1012
2016-12-16T20:33:20.873Z,1012
2016-12-16T20:33:41.634Z,1012
2016-12-16T20:34:02.302Z,1012
2016-12-16T20:34:24.526Z,1012
2016-12-16T20:34:45.978Z,1012
2016-12-16T20:35:06.577Z,1012
2016-12-16T20:35:27.534Z,1012
2016-12-16T20:35:48.174Z,1012
2016-12-16T20:36:09.029Z,1012
2016-12-16T20:36:29.732Z,1012
2016-12-16T20:36:50.289Z,1012
2016-12-16T20:37:11.009Z,1012
2016-12-16T20:37:31.711Z,1012
2016-12-16T20:37:52.301Z,1012
2016-12-16T20:38:12.881Z,1012.1
2016-12-16T20:38:33.470Z,1012
2016-12-16T20:38:54.080Z,1012.1
2016-12-16T20:39:14.699Z,1012.1
2016-12-16T20:39:35.437Z,1012
2016-12-16T20:39:56.036Z,1012.1
2016-12-16T20:40:16.676Z,1012.1
2016-12-16T20:40:37.731Z,1012.1
2016-12-16T20:40:58.401Z,1012.1
2016-12-16T20:41:19.484Z,1012.1
2016-12-16T20:41:40.187Z,1012.1
2016-12-16T20:42:00.947Z,1012.1
2016-12-16T20:42:21.495Z,1012.1
2016-12-16T20:42:42.037Z,1012.1
2016-12-16T20:43:02.618Z,1012.1
2016-12-16T20:43:23.276Z,1012.1
2016-12-16T20:43:43.870Z,1012.1
2016-12-16T20:44:04.436Z,1012.1
2016-12-16T20:44:25.842Z,1012.1
2016-12-16T20:44:46.703Z,1012.1
2016-12-16T20:45:07.406Z,1012.1
2016-12-16T20:45:28.100Z,1012.1
2016-12-16T20:45:48.704Z,1012.1
2016-12-16T20:46:09.572Z,1012.1
2016-12-16T20:46:30.737Z,1012.1
2016-12-16T20:46:53.201Z,1012.1
2016-12-16T20:47:14.279Z,1012.1
2016-12-16T20:47:35.029Z,1012.1
2016-12-16T20:47:55.732Z,1012.1
2016-12-16T20:48:16.644Z,1012.1
2016-12-16T20:48:37.226Z,1012.1
2016-12-16T20:48:57.801Z,1012.1
2016-12-16T20:49:18.363Z,1012.1
2016-12-16T20:49:38.914Z,1012.1
2016-12-16T20:49:59.447Z,1012.1
2016-12-16T20:50:19.991Z,1012.1
2016-12-16T20:50:40.526Z,1012.1
2016-12-16T20:51:01.086Z,1012.1
2016-12-16T20:51:21.633Z,1012.1
2016-12-16T20:51:42.173Z,1012.1
2016-12-16T20:52:02.735Z,1012.1
2016-12-16T20:52:23.279Z,1012.2
2016-12-16T20:52:44.337Z,1012.1
2016-12-16T20:53:04.891Z,1012.1
2016-12-16T20:53:25.442Z,1012.1
2016-12-16T20:53:46.727Z,1012.2
2016-12-16T20:54:08.226Z,1012.2
2016-12-16T20:54:29.220Z,1012.2
2016-12-16T20:54:49.783Z,1012.2
2016-12-16T20:55:10.331Z,1012.2
2016-12-16T20:55:30.874Z,1012.1
2016-12-16T20:55:51.426Z,1012.1
2016-12-16T20:56:11.972Z,1012.2
2016-12-16T20:56:32.500Z,1012.1
2016-12-16T20:56:53.049Z,1012.1
2016-12-16T20:57:13.605Z,1012.1
2016-12-16T20:57:34.138Z,1012.2
2016-12-16T20:57:54.697Z,1012.1
2016-12-16T20:58:15.261Z,1012.2
2016-12-16T20:58:35.820Z,1012.2
2016-12-16T20:58:56.349Z,1012.2
2016-12-16T20:59:16.895Z,1012.2
2016-12-16T20:59:37.427Z,1012.2
2016-12-16T20:59:57.957Z,1012.2
2016-12-16T21:00:18.514Z,1012.2
2016-12-16T21:00:39.065Z,1012.2
2016-12-16T21:00:59.602Z,1012.2
2016-12-16T21:01:20.140Z,1012.2
2016-12-16T21:01:40.702Z,1012.2
2016-12-16T21:02:01.243Z,1012.2
2016-12-16T21:02:22.404Z,1012.2
2016-12-16T21:02:42.952Z,1012.2
2016-12-16T21:03:03.498Z,1012.2
2016-12-16T21:03:24.057Z,1012.2
2016-12-16T21:03:44.603Z,1012.2
2016-12-16T21:04:05.803Z,1012.2
2016-12-16T21:04:26.344Z,1012.2
2016-12-16T21:04:46.909Z,1012.3
2016-12-16T21:05:07.450Z,1012.3
2016-12-16T21:05:28.001Z,1012.3
2016-12-16T21:05:48.538Z,1012.3
2016-12-16T21:06:09.073Z,1012.3
2016-12-16T21:06:29.619Z,1012.3
2016-12-16T21:06:50.775Z,1012.3
2016-12-16T21:07:11.334Z,1012.3
2016-12-16T21:07:31.870Z,1012.3
2016-12-16T21:07:52.436Z,1012.4
2016-12-16T21:08:12.983Z,1012.3
2016-12-16T21:08:33.532Z,1012.4
2016-12-16T21:08:54.066Z,1012.4
2016-12-16T21:09:14.611Z,1012.4
2016-12-16T21:09:35.156Z,1012.3
2016-12-16T21:09:55.720Z,1012.3
2016-12-16T21:10:16.268Z,1012.3
2016-12-16T21:10:36.809Z,1012.3
2016-12-16T21:10:57.372Z,1012.4
2016-12-16T21:11:17.933Z,1012.3
2016-12-16T21:11:38.478Z,1012.3
2016-12-16T21:11:59.017Z,1012.3
2016-12-16T21:12:19.597Z,1012.3
2016-12-16T21:12:40.139Z,1012.3
2016-12-16T21:13:00.724Z,1012.4
2016-12-16T21:13:21.306Z,1012.3
2016-12-16T21:13:41.859Z,1012.3
2016-12-16T21:14:02.407Z,1012.4
2016-12-16T21:14:22.950Z,1012.4
2016-12-16T21:14:43.494Z,1012.4
2016-12-16T21:15:04.056Z,1012.3
2016-12-16T21:15:24.603Z,1012.4
2016-12-16T21:15:45.142Z,1012.4
2016-12-16T21:16:05.714Z,1012.4
2016-12-16T21:16:26.253Z,1012.4
2016-12-16T21:16:46.800Z,1012.4
2016-12-16T21:17:07.339Z,1012.4
2016-12-16T21:17:27.893Z,1012.3
2016-12-16T21:17:48.476Z,1012.3
2016-12-16T21:18:09.030Z,1012.4
2016-12-16T21:18:29.580Z,1012.3
2016-12-16T21:18:50.445Z,1012.4
2016-12-16T21:19:11.303Z,1012.4
2016-12-16T21:19:31.853Z,1012.4
2016-12-16T21:19:52.406Z,1012.3
2016-12-16T21:20:13.588Z,1012.3
2016-12-16T21:20:34.156Z,1012.4
2016-12-16T21:20:55.175Z,1012.4
2016-12-16T21:21:16.197Z,1012.3
2016-12-16T21:21:36.771Z,1012.4
2016-12-16T21:21:57.464Z,1012.4
2016-12-16T21:22:18.058Z,1012.4
2016-12-16T21:22:39.003Z,1012.4
2016-12-16T21:22:59.544Z,1012.4
2016-12-16T21:23:20.315Z,1012.4
2016-12-16T21:23:40.862Z,1012.4
2016-12-16T21:24:02.065Z,1012.4
2016-12-16T21:24:25.343Z,1012.5
2016-12-16T21:24:48.223Z,1012.4
2016-12-16T21:25:10.469Z,1012.4
2016-12-16T21:25:32.087Z,1012.4
2016-12-16T21:25:53.558Z,1012.4
2016-12-16T21:26:15.168Z,1012.4
2016-12-16T21:26:36.269Z,1012.4
2016-12-16T21:26:57.306Z,1012.4
2016-12-16T21:27:18.255Z,1012.4
2016-12-16T21:27:39.741Z,1012.4
2016-12-16T21:28:01.537Z,1012.4
2016-12-16T21:28:24.355Z,1012.5
2016-12-16T21:28:44.919Z,1012.5
2016-12-16T21:29:05.511Z,1012.4
2016-12-16T21:29:30.571Z,1012.4
2016-12-16T21:29:53.546Z,1012.4
2016-12-16T21:30:15.635Z,1012.5
2016-12-16T21:30:36.191Z,1012.5
2016-12-16T21:30:56.702Z,1012.4
2016-12-16T21:31:17.241Z,1012.4
2016-12-16T21:31:39.678Z,1012.4
2016-12-16T21:32:02.581Z,1012.5
2016-12-16T21:32:25.131Z,1012.4
2016-12-16T21:32:46.509Z,1012.5
2016-12-16T21:33:08.291Z,1012.4
2016-12-16T21:33:30.129Z,1012.4
2016-12-16T21:33:51.614Z,1012.4
2016-12-16T21:34:12.689Z,1012.4
2016-12-16T21:35:04.342Z,1012.5
2016-12-16T21:35:25.922Z,1012.4
2016-12-16T21:35:48.029Z,1012.4
2016-12-16T21:36:09.599Z,1012.4
2016-12-16T21:36:31.087Z,1012.4
2016-12-16T21:36:52.408Z,1012.4
2016-12-16T21:37:13.685Z,1012.4
2016-12-16T21:37:35.126Z,1012.4
2016-12-16T21:37:55.910Z,1012.4
2016-12-16T21:38:17.091Z,1012.4
2016-12-16T21:38:38.159Z,1012.4
2016-12-16T21:38:59.654Z,1012.4
2016-12-16T21:39:21.805Z,1012.4
2016-12-16T21:39:43.472Z,1012.4
2016-12-16T21:40:05.686Z,1012.4
2016-12-16T21:40:27.134Z,1012.4
2016-12-16T21:40:48.801Z,1012.4
2016-12-16T21:41:10.336Z,1012.4
2016-12-16T21:41:31.477Z,1012.4
2016-12-16T21:41:53.421Z,1012.4
2016-12-16T21:42:15.343Z,1012.4
2016-12-16T21:42:37.083Z,1012.4
2016-12-16T21:42:58.685Z,1012.4
2016-12-16T21:43:20.599Z,1012.4
2016-12-16T21:43:42.249Z,1012.4
2016-12-16T21:44:04.387Z,1012.5
2016-12-16T21:44:26.606Z,1012.5
2016-12-16T21:44:48.194Z,1012.4
2016-12-16T21:45:10.357Z,1012.4
2016-12-16T21:45:32.397Z,1012.5
2016-12-16T21:45:54.432Z,1012.4
2016-12-16T21:46:16.450Z,1012.4
2016-12-16T21:46:37.901Z,1012.5
2016-12-16T21:46:59.433Z,1012.4
2016-12-16T21:47:20.246Z,1012.4
2016-12-16T21:47:40.811Z,1012.4
2016-12-16T21:48:01.395Z,1012.5
2016-12-16T21:48:21.958Z,1012.5
2016-12-16T21:48:45.385Z,1012.5
2016-12-16T21:49:08.828Z,1012.4
2016-12-16T21:49:29.935Z,1012.4
2016-12-16T21:49:50.489Z,1012.4
2016-12-16T21:50:11.050Z,1012.4
2016-12-16T21:50:31.661Z,1012.4
2016-12-16T21:50:54.230Z,1012.4
2016-12-16T21:51:17.897Z,1012.4
2016-12-16T21:51:40.724Z,1012.4
2016-12-16T21:52:01.659Z,1012.4
2016-12-16T21:52:23.161Z,1012.4
2016-12-16T21:52:44.586Z,1012.4
2016-12-16T21:53:05.681Z,1012.5
2016-12-16T21:53:26.238Z,1012.4
2016-12-16T21:53:46.790Z,1012.4
2016-12-16T21:54:07.324Z,1012.4
2016-12-16T21:54:27.862Z,1012.4
2016-12-16T21:54:48.424Z,1012.4
2016-12-16T21:55:10.739Z,1012.4
2016-12-16T21:55:37.838Z,1012.4
2016-12-16T21:56:03.080Z,1012.4
2016-12-16T21:56:26.790Z,1012.4
2016-12-16T21:56:48.181Z,1012.4
2016-12-16T21:57:09.772Z,1012.5
2016-12-16T21:57:31.031Z,1012.5
2016-12-16T21:57:52.966Z,1012.5
2016-12-16T21:58:13.529Z,1012.4
2016-12-16T21:58:34.080Z,1012.5
2016-12-16T21:58:54.648Z,1012.4
2016-12-16T21:59:15.187Z,1012.4
2016-12-16T21:59:36.341Z,1012.4
2016-12-16T22:00:00.088Z,1012.4
2016-12-16T22:00:22.610Z,1012.4
2016-12-16T22:00:45.079Z,1012.5
2016-12-16T22:01:06.700Z,1012.4
2016-12-16T22:01:27.536Z,1012.4
2016-12-16T22:01:49.225Z,1012.4
2016-12-16T22:02:11.095Z,1012.5
2016-12-16T22:02:32.874Z,1012.5
2016-12-16T22:02:54.082Z,1012.5
2016-12-16T22:03:15.438Z,1012.5
2016-12-16T22:03:36.688Z,1012.5
2016-12-16T22:03:57.931Z,1012.5
2016-12-16T22:04:19.375Z,1012.5
2016-12-16T22:04:40.867Z,1012.5
2016-12-16T22:05:02.669Z,1012.5
2016-12-16T22:05:24.172Z,1012.5
2016-12-16T22:05:45.529Z,1012.5
2016-12-16T22:06:06.727Z,1012.5
2016-12-16T22:06:28.060Z,1012.5
2016-12-16T22:06:49.208Z,1012.5
2016-12-16T22:07:10.275Z,1012.5
2016-12-16T22:07:31.780Z,1012.5
2016-12-16T22:07:53.131Z,1012.5
2016-12-16T22:08:14.736Z,1012.5
2016-12-16T22:08:35.552Z,1012.5
2016-12-16T22:08:56.121Z,1012.5
2016-12-16T22:09:16.657Z,1012.5
2016-12-16T22:09:37.213Z,1012.5
2016-12-16T22:09:57.751Z,1012.5
2016-12-16T22:10:21.832Z,1012.6
2016-12-16T22:10:43.556Z,1012.5
2016-12-16T22:11:04.102Z,1012.5
2016-12-16T22:11:24.637Z,1012.5
2016-12-16T22:11:47.602Z,1012.6
2016-12-16T22:12:11.233Z,1012.6
2016-12-16T22:12:33.554Z,1012.5
2016-12-16T22:12:54.724Z,1012.6
2016-12-16T22:13:16.060Z,1012.6
2016-12-16T22:13:37.613Z,1012.5
2016-12-16T22:13:58.738Z,1012.5
2016-12-16T22:14:20.335Z,1012.6
2016-12-16T22:14:41.857Z,1012.6
2016-12-16T22:15:03.608Z,1012.5
2016-12-16T22:15:25.481Z,1012.6
2016-12-16T22:15:46.815Z,1012.6
2016-12-16T22:16:08.081Z,1012.6
2016-12-16T22:16:29.635Z,1012.6
2016-12-16T22:16:50.594Z,1012.6
2016-12-16T22:17:11.479Z,1012.6
2016-12-16T22:17:32.853Z,1012.6
2016-12-16T22:17:53.843Z,1012.6
2016-12-16T22:18:14.475Z,1012.6
2016-12-16T22:18:35.354Z,1012.6
2016-12-16T22:18:56.337Z,1012.6
2016-12-16T22:19:17.723Z,1012.6
2016-12-16T22:19:38.768Z,1012.6
2016-12-16T22:20:00.288Z,1012.6
2016-12-16T22:20:21.724Z,1012.6
2016-12-16T22:20:42.862Z,1012.6
2016-12-16T22:21:04.759Z,1012.6
2016-12-16T22:21:26.452Z,1012.6
2016-12-16T22:21:48.072Z,1012.6
2016-12-16T22:22:09.604Z,1012.6
2016-12-16T22:22:30.569Z,1012.6
2016-12-16T22:22:52.089Z,1012.6
2016-12-16T22:23:12.932Z,1012.6
2016-12-16T22:23:34.303Z,1012.6
2016-12-16T22:23:55.806Z,1012.7
2016-12-16T22:24:17.032Z,1012.6
2016-12-16T22:24:38.229Z,1012.6
2016-12-16T22:24:59.072Z,1012.6
2016-12-16T22:25:20.128Z,1012.6
2016-12-16T22:25:40.833Z,1012.7
2016-12-16T22:26:01.391Z,1012.7
2016-12-16T22:26:21.966Z,1012.7
2016-12-16T22:26:42.523Z,1012.7
2016-12-16T22:27:03.119Z,1012.6
2016-12-16T22:27:23.674Z,1012.6
2016-12-16T22:27:44.243Z,1012.6
2016-12-16T22:28:04.776Z,1012.6
2016-12-16T22:28:26.032Z,1012.6
2016-12-16T22:28:46.578Z,1012.6
2016-12-16T22:29:07.130Z,1012.6
2016-12-16T22:29:27.677Z,1012.7
2016-12-16T22:29:48.986Z,1012.7
2016-12-16T22:30:10.113Z,1012.7
2016-12-16T22:30:32.780Z,1012.6
2016-12-16T22:30:55.507Z,1012.7
2016-12-16T22:31:17.078Z,1012.7
2016-12-16T22:31:38.356Z,1012.6
2016-12-16T22:31:59.661Z,1012.7
2016-12-16T22:32:20.846Z,1012.6
2016-12-16T22:32:41.720Z,1012.6
2016-12-16T22:33:02.676Z,1012.7
2016-12-16T22:33:23.763Z,1012.7
2016-12-16T22:33:44.586Z,1012.6
2016-12-16T22:34:05.223Z,1012.7
2016-12-16T22:34:26.412Z,1012.6
2016-12-16T22:35:27.600Z,1012.6
2016-12-16T22:35:48.128Z,1012.6
2016-12-16T22:36:08.690Z,1012.7
2016-12-16T22:36:29.230Z,1012.6
2016-12-16T22:36:49.846Z,1012.6
2016-12-16T22:37:12.261Z,1012.6
2016-12-16T22:37:37.684Z,1012.6
2016-12-16T22:37:59.777Z,1012.7
2016-12-16T22:38:20.410Z,1012.7
2016-12-16T22:38:41.594Z,1012.6
2016-12-16T22:39:02.699Z,1012.7
2016-12-16T22:39:23.595Z,1012.7
2016-12-16T22:39:44.640Z,1012.7
2016-12-16T22:40:06.207Z,1012.6
2016-12-16T22:40:27.613Z,1012.6
2016-12-16T22:40:48.754Z,1012.6
2016-12-16T22:41:09.664Z,1012.6
2016-12-16T22:41:30.513Z,1012.7
2016-12-16T22:41:51.332Z,1012.7
2016-12-16T22:42:12.442Z,1012.6
2016-12-16T22:42:33.544Z,1012.6
2016-12-16T22:42:54.387Z,1012.6
2016-12-16T22:43:15.561Z,1012.6
2016-12-16T22:43:37.080Z,1012.6
2016-12-16T22:43:58.013Z,1012.6
2016-12-16T22:44:19.089Z,1012.7
2016-12-16T22:44:40.322Z,1012.6
2016-12-16T22:45:01.275Z,1012.6
2016-12-16T22:45:22.087Z,1012.6
2016-12-16T22:45:42.673Z,1012.7
2016-12-16T22:46:03.236Z,1012.6
2016-12-16T22:46:24.699Z,1012.7
2016-12-16T22:46:45.571Z,1012.6
2016-12-16T22:47:06.559Z,1012.7
2016-12-16T22:47:27.978Z,1012.7
2016-12-16T22:47:48.812Z,1012.6
2016-12-16T22:48:09.582Z,1012.7
2016-12-16T22:48:30.482Z,1012.6
2016-12-16T22:48:51.538Z,1012.6
2016-12-16T22:49:12.292Z,1012.7
2016-12-16T22:49:33.488Z,1012.6
2016-12-16T22:49:54.626Z,1012.7
2016-12-16T22:50:15.581Z,1012.6
2016-12-16T22:50:36.483Z,1012.6
2016-12-16T22:50:58.175Z,1012.7
2016-12-16T22:51:19.103Z,1012.7
2016-12-16T22:51:40.194Z,1012.7
2016-12-16T22:52:00.757Z,1012.7
2016-12-16T22:52:21.308Z,1012.7
2016-12-16T22:52:41.838Z,1012.7
2016-12-16T22:53:02.945Z,1012.7
2016-12-16T22:53:23.991Z,1012.7
2016-12-16T22:53:44.841Z,1012.7
2016-12-16T22:54:06.767Z,1012.7
2016-12-16T22:54:27.831Z,1012.7
2016-12-16T22:54:49.068Z,1012.7
2016-12-16T22:55:12.944Z,1012.8
2016-12-16T22:55:33.921Z,1012.7
2016-12-16T22:55:54.940Z,1012.7
2016-12-16T22:56:15.917Z,1012.7
2016-12-16T22:56:36.872Z,1012.8
2016-12-16T22:56:57.695Z,1012.8
2016-12-16T22:57:18.773Z,1012.8
2016-12-16T22:57:39.910Z,1012.8
2016-12-16T22:58:01.222Z,1012.8
2016-12-16T22:58:22.133Z,1012.8
2016-12-16T22:58:43.398Z,1012.8
2016-12-16T22:59:04.159Z,1012.8
2016-12-16T22:59:24.969Z,1012.8
2016-12-16T22:59:46.430Z,1012.8
2016-12-16T23:00:07.319Z,1012.8
2016-12-16T23:00:28.292Z,1012.8
2016-12-16T23:00:49.198Z,1012.8
2016-12-16T23:01:10.179Z,1012.8
2016-12-16T23:01:31.346Z,1012.8
2016-12-16T23:01:52.486Z,1012.8
2016-12-16T23:02:13.607Z,1012.8
2016-12-16T23:02:34.591Z,1012.8
2016-12-16T23:02:55.767Z,1012.8
2016-12-16T23:03:16.789Z,1012.8
2016-12-16T23:03:37.856Z,1012.8
2016-12-16T23:03:58.712Z,1012.8
2016-12-16T23:04:19.674Z,1012.8
2016-12-16T23:04:40.869Z,1012.8
2016-12-16T23:05:02.102Z,1012.8
2016-12-16T23:05:23.281Z,1012.8
2016-12-16T23:05:44.360Z,1012.8
2016-12-16T23:06:05.353Z,1012.9
2016-12-16T23:06:26.234Z,1012.9
2016-12-16T23:06:47.105Z,1012.9
2016-12-16T23:07:07.653Z,1012.8
2016-12-16T23:07:28.171Z,1012.9
2016-12-16T23:07:48.749Z,1012.8
2016-12-16T23:08:09.282Z,1012.8
2016-12-16T23:08:29.819Z,1012.8
2016-12-16T23:08:50.353Z,1012.9
2016-12-16T23:09:10.887Z,1012.8
2016-12-16T23:09:31.441Z,1012.9
2016-12-16T23:09:51.970Z,1012.9
2016-12-16T23:10:12.535Z,1012.9
2016-12-16T23:10:33.057Z,1012.8
2016-12-16T23:10:53.596Z,1012.9
2016-12-16T23:11:14.147Z,1012.9
2016-12-16T23:11:34.697Z,1012.9
2016-12-16T23:11:55.236Z,1012.9
2016-12-16T23:12:15.769Z,1012.9
2016-12-16T23:12:36.333Z,1012.8
2016-12-16T23:12:56.861Z,1012.8
2016-12-16T23:13:17.388Z,1012.9
2016-12-16T23:13:37.922Z,1012.8
2016-12-16T23:13:58.448Z,1012.9
2016-12-16T23:14:18.999Z,1012.9
2016-12-16T23:14:39.533Z,1012.9
2016-12-16T23:15:00.081Z,1012.8
2016-12-16T23:15:20.630Z,1012.8
2016-12-16T23:15:41.186Z,1012.8
2016-12-16T23:16:01.721Z,1012.8
2016-12-16T23:16:22.260Z,1012.8
2016-12-16T23:16:42.828Z,1012.8
2016-12-16T23:17:04.232Z,1012.8
2016-12-16T23:17:24.776Z,1012.8
2016-12-16T23:17:45.329Z,1012.8
2016-12-16T23:18:05.948Z,1012.8
2016-12-16T23:18:26.508Z,1012.8
2016-12-16T23:18:47.080Z,1012.8
2016-12-16T23:19:07.616Z,1012.8
2016-12-16T23:19:28.160Z,1012.8
2016-12-16T23:19:48.685Z,1012.8
2016-12-16T23:20:09.216Z,1012.8
2016-12-16T23:20:29.784Z,1012.8
2016-12-16T23:20:50.321Z,1012.8
2016-12-16T23:21:10.868Z,1012.8
2016-12-16T23:21:31.454Z,1012.8
2016-12-16T23:21:52.003Z,1012.8
2016-12-16T23:22:12.573Z,1012.7
2016-12-16T23:22:33.111Z,1012.7
2016-12-16T23:22:53.663Z,1012.7
2016-12-16T23:23:14.196Z,1012.7
2016-12-16T23:23:34.760Z,1012.7
2016-12-16T23:23:55.307Z,1012.7
2016-12-16T23:24:15.839Z,1012.7
2016-12-16T23:24:36.397Z,1012.7
2016-12-16T23:24:56.932Z,1012.7
2016-12-16T23:25:17.474Z,1012.7
2016-12-16T23:25:38.012Z,1012.7
2016-12-16T23:25:58.533Z,1012.7
2016-12-16T23:26:19.069Z,1012.7
2016-12-16T23:26:39.604Z,1012.7
2016-12-16T23:27:00.139Z,1012.7
2016-12-16T23:27:20.696Z,1012.6
2016-12-16T23:27:41.246Z,1012.7
2016-12-16T23:28:01.809Z,1012.6
2016-12-16T23:28:22.346Z,1012.6
2016-12-16T23:28:42.904Z,1012.7
2016-12-16T23:29:03.445Z,1012.7
2016-12-16T23:29:23.999Z,1012.7
2016-12-16T23:29:44.573Z,1012.8
2016-12-16T23:30:05.106Z,1012.8
2016-12-16T23:30:25.682Z,1012.8
2016-12-16T23:30:46.222Z,1012.8
2016-12-16T23:31:06.768Z,1012.8
2016-12-16T23:31:27.304Z,1012.8
2016-12-16T23:31:47.833Z,1012.8
2016-12-16T23:32:08.373Z,1012.8
2016-12-16T23:32:28.925Z,1012.8
2016-12-16T23:32:49.483Z,1012.8
2016-12-16T23:33:10.017Z,1012.8
2016-12-16T23:33:30.544Z,1012.8
2016-12-16T23:33:51.116Z,1012.9
2016-12-16T23:34:11.689Z,1012.9
2016-12-16T23:34:32.250Z,1012.9
2016-12-16T23:34:52.837Z,1012.9
2016-12-16T23:35:13.389Z,1012.9
2016-12-16T23:35:33.919Z,1012.9
2016-12-16T23:35:54.458Z,1012.9
2016-12-16T23:36:14.998Z,1012.9
2016-12-16T23:36:35.529Z,1012.8
2016-12-16T23:36:56.070Z,1012.9
2016-12-16T23:37:16.621Z,1012.9
2016-12-16T23:37:37.195Z,1012.9
2016-12-16T23:37:57.721Z,1012.9
2016-12-16T23:38:18.270Z,1012.9
2016-12-16T23:38:38.801Z,1012.9
2016-12-16T23:38:59.343Z,1012.9
2016-12-16T23:39:19.889Z,1012.9
2016-12-16T23:39:40.440Z,1012.9
2016-12-16T23:40:00.995Z,1012.9
2016-12-16T23:40:21.537Z,1012.9
2016-12-16T23:40:42.075Z,1012.9
2016-12-16T23:41:02.620Z,1012.9
2016-12-16T23:41:23.198Z,1012.9
2016-12-16T23:41:43.724Z,1012.9
2016-12-16T23:42:04.280Z,1012.9
2016-12-16T23:42:24.825Z,1012.9
2016-12-16T23:42:45.367Z,1012.9
2016-12-16T23:43:05.908Z,1012.9
2016-12-16T23:43:26.443Z,1012.9
2016-12-16T23:43:47.029Z,1012.9
2016-12-16T23:44:07.578Z,1012.9
2016-12-16T23:44:28.117Z,1012.9
2016-12-16T23:44:48.690Z,1012.9
2016-12-16T23:45:09.222Z,1012.9
2016-12-16T23:45:29.750Z,1012.9
2016-12-16T23:45:50.272Z,1012.8
2016-12-16T23:46:10.828Z,1012.8
2016-12-16T23:46:31.364Z,1012.8
2016-12-16T23:46:51.912Z,1012.9
2016-12-16T23:47:12.457Z,1012.9
2016-12-16T23:47:32.984Z,1012.9
2016-12-16T23:47:53.565Z,1012.9
2016-12-16T23:48:14.100Z,1012.9
2016-12-16T23:48:34.644Z,1012.9
2016-12-16T23:48:55.213Z,1012.9
2016-12-16T23:49:15.797Z,1012.9
2016-12-16T23:49:36.322Z,1012.9